This is the latest recevied weather packets stored in our database for station/object CE4ERM-13. If no packets are shown the sender has not sent any weather packets the latest 10 day(s).
| Time | Temp. | Humidity | Pressure | Rain* | Wind** | Luminosity | Snow |
|---|---|---|---|---|---|---|---|
| 1777369974 | 20° C | 37% | 1019.7 hPa | - | - | - | - |
| 1777369373 | 20.56° C | 37% | 1018.8 hPa | - | - | - | - |
| 1777368773 | 20.56° C | 36% | 1019.8 hPa | - | - | - | - |
| 1777368269 | 19.44° C | 37% | 1024.1 hPa | - | - | - | - |
| 1777368173 | 21.11° C | 35% | 1021.1 hPa | - | - | - | - |
| 1777367669 | 19.44° C | 37% | 1020.6 hPa | - | - | - | - |
| 1777367572 | 20.56° C | 36% | 1019.3 hPa | - | - | - | - |
| 1777367068 | 19.44° C | 37% | 1018.9 hPa | - | - | - | - |
| 1777366972 | 22.22° C | 33% | 1019.8 hPa | - | - | - | - |
| 1777366468 | 19.44° C | 37% | 1021.6 hPa | - | - | - | - |
| 1777366371 | 22.22° C | 32% | 1020 hPa | - | - | - | - |
| 1777365867 | 19.44° C | 37% | 1019.1 hPa | - | - | - | - |
| 1777365771 | 21.11° C | 34% | 1019.5 hPa | - | - | - | - |
| 1777365267 | 19.44° C | 37% | 1022.6 hPa | - | - | - | - |
| 1777365170 | 22.78° C | 32% | 1020.5 hPa | - | - | - | - |
| 1777364666 | 19.44° C | 37% | 1020.8 hPa | - | - | - | - |
| 1777364570 | 20° C | 36% | 1020.8 hPa | - | - | - | - |
| 1777364066 | 19.44° C | 38% | 1021.2 hPa | - | - | - | - |
| 1777363970 | 21.11° C | 35% | 1019.8 hPa | - | - | - | - |
| 1777363466 | 19.44° C | 37% | 1021.8 hPa | - | - | - | - |
| 1777363370 | 22.78° C | 33% | 1019.6 hPa | - | - | - | - |
| 1777362866 | 19.44° C | 38% | 1018.9 hPa | - | - | - | - |
| 1777362769 | 21.11° C | 34% | 1018.6 hPa | - | - | - | - |
| 1777362266 | 19.44° C | 38% | 1020 hPa | - | - | - | - |
| 1777362169 | 22.78° C | 32% | 1020.9 hPa | - | - | - | - |
* Rain since midnight (hover to see other rain measurements)
** Current wind speed in m/s (hover to see current wind gust speed)